Main page
METAR-TAF:

METAR-TAF

Airports :

Pohnpei International Airport

Pohnpei, Micronesia

latitude: 06-59N, longitude: 158-12E, elevation: 2 m

Current weather observation

The report was made 23 minutes ago, at 22:59 UTC
Calm wind
Temperature 28°C
Humidity 89%
Pressure 1008 hPa
Visibility: 24.1 km
Broken clouds at a height of 1700 ft, Towering cumulus.
Broken clouds at a height of 13000 ft
Overcast at a height of 30000 ft

METAR: PTPN 212259Z 00000KT 15SM BKN017TCU BKN130 OVC300 28/26 A2977 RMK TCU ALQDS

Time: 10:22 (23:22 UTC)

Forecast

The report was made 30 minutes ago, at 22:52 UTC
Forecast valid from 21 at 23 UTC to 22 at 18 UTC
Wind 11 kt from the East
Visibility: 10 km
Scattered clouds at a height of 1500 ft
Scattered clouds at a height of 12000 ft
showers in vicinity

TAF: PTPN 212252Z 2123/2218 08011KT P6SM VCSH SCT015 SCT120

Weather observations and forecasts of more than 4000 airports (METAR and TAF reports).

The available stations are represented by yellow and red dots on the map.

Hover mouse over dot to see the name of the station.

Then click to see weather observations and forecasts.

To change the map : click on the green buttons with a black cross to zoom in, on the green button with a dash to zoom out, or on the green arrows for adjacent maps.


METAR-TAF: